createdAt,value
2022-09-10T00:01:17.025Z,48.70
2022-09-10T00:03:43.688Z,48.70
2022-09-10T00:06:10.492Z,48.70
2022-09-10T00:08:38.166Z,48.80
2022-09-10T00:11:05.553Z,48.90
2022-09-10T00:13:32.543Z,49.00
2022-09-10T00:15:59.304Z,49.00
2022-09-10T00:18:25.908Z,49.10
2022-09-10T00:20:53.097Z,49.10
2022-09-10T00:23:20.543Z,49.30
2022-09-10T00:25:47.144Z,49.40
2022-09-10T00:28:13.874Z,49.40
2022-09-10T00:30:41.027Z,49.40
2022-09-10T00:33:08.120Z,49.50
2022-09-10T00:35:34.701Z,49.30
2022-09-10T00:38:01.319Z,49.40
2022-09-10T00:40:28.515Z,49.50
2022-09-10T00:42:55.299Z,49.40
2022-09-10T00:45:23.199Z,49.90
2022-09-10T00:47:50.365Z,50.00
2022-09-10T00:50:21.623Z,50.20
2022-09-10T00:52:48.664Z,50.10
2022-09-10T00:55:15.260Z,50.10
2022-09-10T00:57:41.822Z,50.20
2022-09-10T01:00:10.278Z,50.20
2022-09-10T01:02:36.909Z,50.30
2022-09-10T01:05:03.786Z,50.30
2022-09-10T01:07:30.426Z,50.30
2022-09-10T01:09:57.542Z,50.20
2022-09-10T01:12:44.340Z,49.80
2022-09-10T01:15:22.043Z,49.60
2022-09-10T01:17:58.997Z,49.30
2022-09-10T01:20:34.539Z,49.10
2022-09-10T01:23:04.782Z,49.30
2022-09-10T01:25:31.373Z,49.40
2022-09-10T01:27:57.989Z,49.50
2022-09-10T01:30:25.722Z,49.50
2022-09-10T01:33:00.659Z,49.90
2022-09-10T01:35:33.294Z,49.90
2022-09-10T01:38:00.696Z,50.00
2022-09-10T01:40:30.323Z,50.10
2022-09-10T01:43:01.248Z,50.30
2022-09-10T01:45:28.729Z,50.40
2022-09-10T01:48:06.215Z,50.40
2022-09-10T01:50:43.590Z,50.50
2022-09-10T01:53:14.016Z,50.60
2022-09-10T01:55:44.146Z,50.60
2022-09-10T01:58:10.746Z,50.60
2022-09-10T02:00:38.154Z,50.50
2022-09-10T02:03:16.093Z,50.60
2022-09-10T02:05:43.464Z,50.60
2022-09-10T02:08:11.690Z,50.60
2022-09-10T02:10:53.863Z,50.60
2022-09-10T02:13:20.785Z,50.50
2022-09-10T02:15:49.232Z,50.50
2022-09-10T02:18:15.849Z,50.40
2022-09-10T02:20:42.458Z,50.40
2022-09-10T02:23:09.228Z,50.40
2022-09-10T02:25:37.372Z,50.40
2022-09-10T02:28:04.671Z,50.50
2022-09-10T02:30:31.253Z,50.30
2022-09-10T02:32:57.915Z,50.40
2022-09-10T02:35:24.535Z,50.40
2022-09-10T02:37:51.139Z,50.40
2022-09-10T02:40:19.461Z,50.40
2022-09-10T02:42:46.766Z,50.40
2022-09-10T02:45:13.895Z,50.50
2022-09-10T02:47:40.470Z,50.60
2022-09-10T02:50:07.626Z,50.60
2022-09-10T02:52:34.341Z,50.80
2022-09-10T02:55:01.377Z,50.80
2022-09-10T02:57:27.982Z,50.90
2022-09-10T02:59:56.426Z,50.80
2022-09-10T03:02:23.193Z,50.90
2022-09-10T03:04:49.883Z,50.90
2022-09-10T03:07:20.239Z,50.70
2022-09-10T03:09:47.108Z,50.50
2022-09-10T03:12:15.845Z,50.30
2022-09-10T03:14:47.309Z,50.00
2022-09-10T03:17:13.890Z,49.60
2022-09-10T03:19:40.497Z,49.50
2022-09-10T03:22:07.157Z,49.60
2022-09-10T03:24:33.753Z,49.60
2022-09-10T03:27:01.324Z,49.70
2022-09-10T03:29:30.101Z,49.70
2022-09-10T03:31:56.780Z,49.90
2022-09-10T03:34:23.404Z,49.90
2022-09-10T03:36:51.446Z,50.00
2022-09-10T03:39:18.929Z,50.20
2022-09-10T03:41:45.824Z,50.20
2022-09-10T03:44:12.694Z,50.40
2022-09-10T03:46:39.320Z,50.50
2022-09-10T03:49:06.492Z,50.30
2022-09-10T03:51:34.067Z,50.60
2022-09-10T03:54:00.732Z,50.50
2022-09-10T03:56:27.491Z,50.50
2022-09-10T03:58:54.108Z,50.70
2022-09-10T04:01:20.699Z,50.60
2022-09-10T04:03:47.331Z,50.70
2022-09-10T04:06:14.283Z,50.60
2022-09-10T04:08:40.854Z,50.70
2022-09-10T04:11:07.447Z,50.70
2022-09-10T04:13:34.014Z,50.80
2022-09-10T04:16:00.762Z,50.70
2022-09-10T04:18:28.117Z,50.80
2022-09-10T04:20:54.896Z,50.90
2022-09-10T04:23:21.624Z,50.80
2022-09-10T04:25:49.689Z,50.80
2022-09-10T04:28:16.326Z,50.80
2022-09-10T04:30:43.688Z,50.70
2022-09-10T04:33:11.616Z,50.80
2022-09-10T04:35:39.572Z,50.70
2022-09-10T04:38:07.158Z,50.80
2022-09-10T04:40:34.339Z,51.00
2022-09-10T04:43:01.038Z,51.00
2022-09-10T04:45:27.772Z,50.90
2022-09-10T04:47:54.401Z,51.00
2022-09-10T04:50:21.898Z,51.20
2022-09-10T04:52:48.504Z,51.30
2022-09-10T04:55:15.640Z,51.30
2022-09-10T04:57:42.264Z,51.30
2022-09-10T05:00:09.231Z,51.30
2022-09-10T05:02:37.390Z,51.40
2022-09-10T05:05:04.079Z,51.60
2022-09-10T05:07:30.940Z,51.50
2022-09-10T05:09:57.557Z,51.60
2022-09-10T05:12:24.277Z,51.40
2022-09-10T05:14:50.907Z,51.20
2022-09-10T05:17:17.479Z,51.10
2022-09-10T05:19:44.085Z,50.80
2022-09-10T05:22:10.736Z,50.50
2022-09-10T05:24:37.356Z,50.20
2022-09-10T05:27:04.154Z,50.20
2022-09-10T05:29:37.228Z,50.50
2022-09-10T05:32:03.826Z,50.70
2022-09-10T05:34:30.439Z,50.80
2022-09-10T05:36:57.019Z,50.80
2022-09-10T05:39:23.668Z,51.00
2022-09-10T05:41:50.284Z,51.80
2022-09-10T05:44:17.561Z,52.00
2022-09-10T05:46:44.703Z,52.60
2022-09-10T05:49:13.220Z,53.40
2022-09-10T05:51:39.896Z,53.60
2022-09-10T05:54:06.527Z,53.80
2022-09-10T05:56:33.139Z,54.40
2022-09-10T05:58:59.777Z,54.80
2022-09-10T06:01:26.446Z,55.20
2022-09-10T06:03:53.123Z,55.20
2022-09-10T06:06:19.703Z,55.10
2022-09-10T06:08:50.863Z,55.30
2022-09-10T06:11:17.797Z,55.00
2022-09-10T06:13:44.404Z,54.80
2022-09-10T06:16:11.850Z,55.20
2022-09-10T06:18:38.875Z,55.50
2022-09-10T06:21:10.306Z,55.70
2022-09-10T06:23:36.930Z,55.80
2022-09-10T06:26:04.371Z,55.70
2022-09-10T06:28:31.851Z,56.10
2022-09-10T06:30:58.625Z,55.70
2022-09-10T06:33:25.367Z,56.40
2022-09-10T06:35:53.704Z,55.50
2022-09-10T06:38:20.428Z,55.70
2022-09-10T06:40:57.803Z,55.60
2022-09-10T06:43:25.982Z,56.10
2022-09-10T06:45:55.722Z,56.10
2022-09-10T06:48:40.489Z,55.80
2022-09-10T06:51:09.637Z,55.80
2022-09-10T06:53:36.414Z,55.80
2022-09-10T06:56:03.263Z,55.80
2022-09-10T06:58:30.743Z,55.80
2022-09-10T07:00:57.503Z,56.00
2022-09-10T07:03:24.214Z,55.70
2022-09-10T07:05:53.437Z,56.10
2022-09-10T07:08:21.114Z,56.10
2022-09-10T07:10:47.718Z,55.90
2022-09-10T07:13:14.328Z,55.90
2022-09-10T07:15:47.027Z,56.10
2022-09-10T07:18:16.535Z,56.40
2022-09-10T07:20:43.507Z,56.50
2022-09-10T07:23:13.601Z,56.40
2022-09-10T07:25:40.694Z,56.40
2022-09-10T07:28:13.102Z,56.40
2022-09-10T07:30:40.308Z,56.50
2022-09-10T07:33:07.026Z,56.50
2022-09-10T07:35:34.341Z,56.60
2022-09-10T07:38:01.004Z,56.70
2022-09-10T07:40:28.560Z,56.20
2022-09-10T07:42:55.780Z,56.20
2022-09-10T07:45:22.457Z,56.50
2022-09-10T07:47:49.982Z,56.40
2022-09-10T07:50:16.688Z,56.40
2022-09-10T07:52:43.365Z,56.20
2022-09-10T07:55:10.073Z,56.30
2022-09-10T07:57:37.951Z,56.00
2022-09-10T08:00:05.395Z,56.50
2022-09-10T08:02:32.058Z,56.30
2022-09-10T08:04:58.729Z,56.00
2022-09-10T08:07:25.348Z,55.80
2022-09-10T08:09:51.966Z,55.80
2022-09-10T08:12:18.651Z,55.60
2022-09-10T08:14:45.299Z,55.70
2022-09-10T08:17:11.922Z,56.00
2022-09-10T08:19:39.400Z,55.60
2022-09-10T08:22:09.156Z,55.20
2022-09-10T08:24:39.350Z,54.90
2022-09-10T08:27:05.949Z,54.70
2022-09-10T08:29:32.565Z,54.30
2022-09-10T08:31:59.217Z,53.80
2022-09-10T08:34:26.508Z,53.30
2022-09-10T08:36:55.642Z,53.10
2022-09-10T08:39:29.716Z,52.50
2022-09-10T08:41:58.172Z,52.60
2022-09-10T08:44:52.251Z,52.50
2022-09-10T08:47:21.210Z,52.40
2022-09-10T08:49:54.946Z,52.30
2022-09-10T08:52:21.552Z,52.60
2022-09-10T08:54:54.265Z,52.90
2022-09-10T08:57:25.537Z,53.10
2022-09-10T08:59:52.465Z,53.30
2022-09-10T09:02:52.438Z,53.70
2022-09-10T09:05:19.582Z,54.10
2022-09-10T09:07:47.113Z,54.60
2022-09-10T09:10:34.067Z,54.90
2022-09-10T09:13:19.650Z,55.30
2022-09-10T09:16:05.032Z,55.80
2022-09-10T09:18:35.016Z,55.80
2022-09-10T09:21:04.337Z,56.10
2022-09-10T09:24:02.648Z,56.40
2022-09-10T09:26:29.876Z,56.70
2022-09-10T09:29:00.475Z,56.40
2022-09-10T09:31:31.175Z,56.40
2022-09-10T09:34:04.927Z,56.70
2022-09-10T09:36:37.829Z,56.40
2022-09-10T09:39:04.559Z,56.40
2022-09-10T09:41:42.465Z,56.20
2022-09-10T09:44:15.215Z,56.40
2022-09-10T09:46:42.618Z,56.30
2022-09-10T09:49:10.918Z,56.00
2022-09-10T09:51:37.734Z,55.90
2022-09-10T09:56:58.934Z,56.40
2022-09-10T09:59:26.505Z,56.30
2022-09-10T10:01:54.407Z,56.40
2022-09-10T10:04:22.649Z,56.50
2022-09-10T10:06:56.382Z,56.80
2022-09-10T10:09:23.766Z,56.90
2022-09-10T10:11:57.742Z,56.80
2022-09-10T10:14:24.419Z,56.80
2022-09-10T10:16:52.371Z,57.40
2022-09-10T10:19:28.151Z,56.70
2022-09-10T10:21:54.839Z,56.50
2022-09-10T10:24:29.427Z,56.50
2022-09-10T10:26:56.055Z,56.30
2022-09-10T10:29:22.674Z,55.90
2022-09-10T10:31:49.542Z,55.80
2022-09-10T10:34:16.194Z,55.80
2022-09-10T10:36:53.335Z,55.80
2022-09-10T10:39:20.023Z,56.00
2022-09-10T10:41:59.308Z,56.00
2022-09-10T10:44:48.991Z,56.50
2022-09-10T10:47:28.291Z,56.40
2022-09-10T10:49:58.435Z,56.50
2022-09-10T10:52:28.089Z,56.30
2022-09-10T10:55:00.844Z,56.30
2022-09-10T10:57:30.582Z,56.30
2022-09-10T11:00:09.397Z,56.30
2022-09-10T11:02:36.354Z,56.30
2022-09-10T11:05:08.400Z,56.20
2022-09-10T11:07:39.444Z,56.20
2022-09-10T11:10:23.502Z,56.20
2022-09-10T11:12:55.221Z,56.10
2022-09-10T11:15:21.945Z,56.30
2022-09-10T11:17:51.645Z,56.30
2022-09-10T11:20:28.969Z,56.50
2022-09-10T11:23:03.742Z,56.60
2022-09-10T11:25:53.065Z,56.60
2022-09-10T11:28:22.359Z,56.50
2022-09-10T11:30:50.614Z,56.70
2022-09-10T11:33:20.952Z,56.40
2022-09-10T11:35:48.322Z,56.10
2022-09-10T11:38:20.540Z,55.80
2022-09-10T11:40:59.296Z,55.40
2022-09-10T11:43:28.528Z,55.40
2022-09-10T11:45:56.144Z,55.70
2022-09-10T11:48:41.258Z,55.90
2022-09-10T11:51:10.449Z,56.00
2022-09-10T11:53:37.314Z,56.50
2022-09-10T11:56:05.096Z,56.80
2022-09-10T11:58:31.985Z,57.10
2022-09-10T12:01:07.914Z,57.30
2022-09-10T12:03:34.540Z,57.40
2022-09-10T12:06:09.513Z,57.40
2022-09-10T12:08:45.586Z,57.00
2022-09-10T12:11:19.167Z,56.90
2022-09-10T12:13:45.983Z,56.70
2022-09-10T12:16:19.269Z,56.50
2022-09-10T12:18:48.005Z,56.00
2022-09-10T12:21:32.590Z,56.00
2022-09-10T12:24:00.147Z,56.00
2022-09-10T12:26:27.517Z,55.80
2022-09-10T12:29:00.755Z,55.40
2022-09-10T12:31:28.071Z,55.70
2022-09-10T12:33:54.778Z,55.70
2022-09-10T12:36:28.652Z,55.60
2022-09-10T12:38:56.420Z,55.60
2022-09-10T12:41:23.083Z,55.80
2022-09-10T12:43:50.820Z,54.70
2022-09-10T12:46:18.431Z,54.40
2022-09-10T12:48:45.714Z,53.90
2022-09-10T12:54:53.613Z,53.70
2022-09-10T12:57:23.323Z,53.60
2022-09-10T12:59:53.985Z,53.50
2022-09-10T13:02:28.564Z,53.40
2022-09-10T13:04:59.947Z,53.40
2022-09-10T13:07:31.829Z,53.40
2022-09-10T13:10:06.623Z,53.30
2022-09-10T13:12:34.187Z,53.40
2022-09-10T13:15:04.023Z,53.50
2022-09-10T13:17:34.951Z,53.40
2022-09-10T13:20:12.968Z,53.50
2022-09-10T13:22:56.808Z,54.20
2022-09-10T13:25:25.022Z,53.80
2022-09-10T13:27:52.029Z,54.00
2022-09-10T13:30:23.326Z,53.90
2022-09-10T13:32:58.091Z,54.10
2022-09-10T13:35:41.490Z,54.10
2022-09-10T13:38:08.494Z,54.10
2022-09-10T13:41:00.041Z,54.10
2022-09-10T13:43:45.584Z,54.40
2022-09-10T13:46:14.859Z,54.20
2022-09-10T13:48:44.651Z,53.80
2022-09-10T13:51:41.105Z,53.50
2022-09-10T13:54:09.364Z,53.20
2022-09-10T13:56:36.473Z,52.80
2022-09-10T13:59:03.580Z,52.70
2022-09-10T14:01:50.837Z,52.50
2022-09-10T14:04:21.549Z,53.00
2022-09-10T14:10:15.412Z,53.40
2022-09-10T14:12:43.343Z,53.10
2022-09-10T14:15:18.836Z,53.20
2022-09-10T14:23:30.103Z,54.30
2022-09-10T14:26:15.829Z,54.90
2022-09-10T14:29:00.001Z,55.20
2022-09-10T14:31:31.358Z,55.20
2022-09-10T14:33:59.060Z,55.50
2022-09-10T14:36:33.650Z,55.50
2022-09-10T14:39:28.673Z,55.80
2022-09-10T14:42:23.716Z,55.60
2022-09-10T14:44:56.254Z,55.50
2022-09-10T14:47:38.483Z,55.20
2022-09-10T14:50:32.098Z,55.20
2022-09-10T14:53:03.823Z,54.80
2022-09-10T14:55:34.884Z,55.30
2022-09-10T14:58:03.011Z,55.60
2022-09-10T15:00:34.258Z,56.00
2022-09-10T15:03:04.373Z,56.60
2022-09-10T15:05:36.091Z,56.20
2022-09-10T15:08:08.473Z,56.50
2022-09-10T15:10:39.738Z,56.50
2022-09-10T15:13:52.048Z,56.50
2022-09-10T15:16:28.370Z,56.80
2022-09-10T15:18:55.555Z,56.80
2022-09-10T15:21:23.259Z,56.80
2022-09-10T15:23:49.965Z,56.90
2022-09-10T15:26:16.710Z,57.30
2022-09-10T15:28:43.396Z,57.50
2022-09-10T15:31:10.987Z,57.40
2022-09-10T15:33:37.801Z,57.80
2022-09-10T15:36:04.805Z,57.70
2022-09-10T15:38:31.514Z,57.90
2022-09-10T15:41:06.380Z,58.00
2022-09-10T15:43:34.806Z,58.20
2022-09-10T15:46:01.558Z,58.60
2022-09-10T15:48:33.560Z,58.80
2022-09-10T15:51:03.689Z,59.10
2022-09-10T15:53:32.869Z,59.70
2022-09-10T15:56:00.474Z,60.00
2022-09-10T15:58:28.885Z,60.10
2022-09-10T16:00:56.459Z,60.00
2022-09-10T16:03:23.218Z,60.30
2022-09-10T16:05:49.913Z,60.70
2022-09-10T16:08:33.036Z,60.40
2022-09-10T16:11:08.114Z,60.70
2022-09-10T16:13:44.206Z,60.50
2022-09-10T16:16:22.250Z,60.70
2022-09-10T16:18:52.836Z,60.20
2022-09-10T16:21:25.596Z,60.20
2022-09-10T16:23:56.035Z,59.70
2022-09-10T16:26:24.853Z,59.40
2022-09-10T16:28:51.930Z,59.00
2022-09-10T16:31:22.825Z,59.10
2022-09-10T16:33:54.042Z,59.20
2022-09-10T16:36:22.412Z,59.20
2022-09-10T16:38:52.215Z,59.10
2022-09-10T16:41:19.115Z,59.30
2022-09-10T16:43:49.625Z,59.40
2022-09-10T16:46:17.981Z,59.80
2022-09-10T16:48:45.106Z,60.20
2022-09-10T16:51:15.765Z,60.10
2022-09-10T16:53:44.348Z,60.20
2022-09-10T16:56:12.733Z,60.40
2022-09-10T16:58:40.505Z,60.40
2022-09-10T17:01:11.484Z,60.50
2022-09-10T17:03:45.286Z,60.50
2022-09-10T17:06:21.566Z,60.50
2022-09-10T17:08:50.438Z,60.60
2022-09-10T17:11:18.221Z,60.70
2022-09-10T17:13:46.618Z,60.60
2022-09-10T17:16:17.754Z,60.70
2022-09-10T17:18:44.990Z,60.90
2022-09-10T17:21:13.455Z,60.30
2022-09-10T17:23:41.748Z,60.00
2022-09-10T17:26:08.914Z,60.00
2022-09-10T17:28:39.042Z,59.80
2022-09-10T17:31:06.501Z,59.60
2022-09-10T17:33:34.007Z,59.30
2022-09-10T17:36:01.683Z,59.00
2022-09-10T17:38:29.123Z,58.70
2022-09-10T17:41:02.538Z,58.50
2022-09-10T17:43:30.414Z,58.50
2022-09-10T17:45:58.474Z,58.50
2022-09-10T17:48:28.292Z,58.70
2022-09-10T17:50:55.372Z,58.80
2022-09-10T17:53:22.636Z,58.80
2022-09-10T17:55:49.939Z,59.00
2022-09-10T17:58:18.945Z,59.00
2022-09-10T18:00:49.878Z,59.00
2022-09-10T18:03:17.911Z,59.00
2022-09-10T18:05:45.199Z,58.90
2022-09-10T18:08:15.197Z,59.00
2022-09-10T18:10:42.245Z,59.00
2022-09-10T18:13:10.309Z,58.90
2022-09-10T18:15:42.360Z,58.90
2022-09-10T18:18:09.927Z,58.80
2022-09-10T18:20:36.971Z,58.90
2022-09-10T18:23:04.042Z,58.80
2022-09-10T18:25:31.771Z,58.80
2022-09-10T18:27:59.129Z,58.70
2022-09-10T18:30:26.956Z,58.60
2022-09-10T18:32:56.725Z,58.60
2022-09-10T18:35:23.780Z,58.50
2022-09-10T18:37:52.392Z,58.40
2022-09-10T18:40:19.878Z,58.20
2022-09-10T18:42:48.081Z,57.90
2022-09-10T18:45:15.868Z,57.60
2022-09-10T18:47:45.385Z,57.40
2022-09-10T18:50:13.519Z,57.10
2022-09-10T18:52:42.844Z,57.00
2022-09-10T18:55:09.721Z,56.80
2022-09-10T18:57:36.643Z,56.30
2022-09-10T19:00:03.883Z,55.80
2022-09-10T19:02:30.706Z,55.50
2022-09-10T19:05:14.467Z,55.00
2022-09-10T19:07:41.496Z,55.10
2022-09-10T19:10:08.986Z,55.30
2022-09-10T19:12:35.693Z,55.50
2022-09-10T19:15:02.364Z,55.40
2022-09-10T19:17:29.045Z,55.40
2022-09-10T19:19:55.719Z,55.40
2022-09-10T19:22:22.363Z,55.40
2022-09-10T19:24:56.543Z,55.40
2022-09-10T19:27:23.532Z,55.40
2022-09-10T19:29:50.550Z,55.40
2022-09-10T19:32:19.643Z,55.40
2022-09-10T19:34:48.914Z,55.50
2022-09-10T19:37:15.661Z,55.40
2022-09-10T19:39:43.089Z,55.40
2022-09-10T19:42:09.943Z,55.40
2022-09-10T19:44:36.751Z,55.30
2022-09-10T19:47:04.171Z,55.40
2022-09-10T19:49:31.368Z,55.40
2022-09-10T19:51:58.125Z,55.30
2022-09-10T19:54:25.798Z,55.20
2022-09-10T19:56:52.590Z,55.30
2022-09-10T19:59:20.246Z,55.30
2022-09-10T20:01:47.003Z,55.20
2022-09-10T20:04:14.395Z,55.10
2022-09-10T20:06:42.486Z,55.20
2022-09-10T20:09:10.106Z,55.20
2022-09-10T20:11:37.096Z,55.10
2022-09-10T20:14:13.522Z,55.10
2022-09-10T20:16:42.376Z,54.90
2022-09-10T20:19:10.933Z,54.80
2022-09-10T20:21:37.714Z,54.40
2022-09-10T20:24:05.725Z,54.20
2022-09-10T20:26:33.513Z,54.00
2022-09-10T20:29:00.959Z,53.90
2022-09-10T20:31:28.825Z,53.90
2022-09-10T20:33:56.569Z,53.90
2022-09-10T20:36:23.309Z,54.00
2022-09-10T20:38:50.528Z,53.90
2022-09-10T20:41:17.289Z,54.00
2022-09-10T20:43:43.954Z,54.00
2022-09-10T20:46:15.432Z,54.20
2022-09-10T20:48:45.885Z,54.20
2022-09-10T20:51:15.188Z,54.20
2022-09-10T20:53:42.284Z,54.30
2022-09-10T20:56:13.161Z,54.30
2022-09-10T20:58:40.632Z,54.40
2022-09-10T21:01:08.198Z,54.40
2022-09-10T21:03:34.881Z,54.40
2022-09-10T21:06:02.171Z,54.40
2022-09-10T21:08:31.392Z,54.40
2022-09-10T21:11:02.543Z,55.10
2022-09-10T21:13:29.481Z,54.50
2022-09-10T21:16:03.483Z,54.50
2022-09-10T21:18:30.205Z,54.50
2022-09-10T21:21:04.917Z,54.40
2022-09-10T21:23:31.580Z,54.60
2022-09-10T21:25:58.312Z,54.50
2022-09-10T21:28:27.196Z,54.50
2022-09-10T21:30:53.981Z,54.40
2022-09-10T21:33:20.730Z,54.50
2022-09-10T21:35:47.438Z,54.50
2022-09-10T21:38:14.315Z,54.40
2022-09-10T21:40:41.846Z,54.40
2022-09-10T21:43:09.823Z,54.30
2022-09-10T21:45:36.753Z,54.20
2022-09-10T21:48:03.433Z,54.00
2022-09-10T21:50:30.089Z,53.90
2022-09-10T21:52:56.757Z,53.60
2022-09-10T21:55:23.485Z,53.30
2022-09-10T21:57:50.147Z,53.00
2022-09-10T22:00:16.881Z,53.00
2022-09-10T22:02:43.607Z,53.00
2022-09-10T22:05:10.374Z,53.10
2022-09-10T22:07:37.099Z,53.20
2022-09-10T22:10:05.957Z,53.20
2022-09-10T22:12:32.636Z,53.40
2022-09-10T22:14:59.337Z,53.40
2022-09-10T22:17:26.361Z,53.50
2022-09-10T22:19:53.177Z,53.50
2022-09-10T22:22:19.887Z,53.60
2022-09-10T22:24:46.506Z,53.70
2022-09-10T22:27:13.192Z,53.70
2022-09-10T22:29:39.881Z,53.70
2022-09-10T22:32:06.529Z,53.70
2022-09-10T22:34:33.181Z,53.80
2022-09-10T22:37:03.253Z,53.90
2022-09-10T22:39:31.924Z,53.80
2022-09-10T22:41:58.770Z,53.80
2022-09-10T22:44:25.802Z,53.80
2022-09-10T22:46:53.942Z,53.80
2022-09-10T22:49:21.936Z,53.80
2022-09-10T22:51:49.079Z,53.80
2022-09-10T22:54:16.636Z,53.90
2022-09-10T22:56:44.566Z,53.80
2022-09-10T22:59:11.846Z,53.90
2022-09-10T23:01:38.641Z,53.90
2022-09-10T23:04:05.662Z,53.80
2022-09-10T23:06:32.683Z,53.80
2022-09-10T23:09:03.811Z,53.70
2022-09-10T23:11:31.287Z,53.80
2022-09-10T23:14:04.932Z,53.70
2022-09-10T23:16:32.226Z,53.50
2022-09-10T23:18:59.909Z,53.30
2022-09-10T23:21:27.310Z,52.80
2022-09-10T23:24:01.012Z,52.90
2022-09-10T23:26:27.744Z,52.60
2022-09-10T23:28:55.259Z,52.60
2022-09-10T23:31:23.715Z,52.70
2022-09-10T23:33:55.181Z,52.70
2022-09-10T23:36:21.997Z,52.90
2022-09-10T23:38:48.733Z,52.80
2022-09-10T23:41:18.370Z,52.80
2022-09-10T23:43:45.513Z,52.80
2022-09-10T23:46:12.962Z,52.90
2022-09-10T23:48:39.961Z,53.10
2022-09-10T23:51:06.668Z,53.10
2022-09-10T23:53:33.410Z,53.10
2022-09-10T23:56:00.867Z,53.20
2022-09-10T23:58:27.562Z,53.30
